sensor_id;sensor_type;location;lat;lon;timestamp;temperature;humidity
53978;DHT22;39886;47.984;-1.586;2024-01-30T00:00:15;18.10;75.40
53978;DHT22;39886;47.984;-1.586;2024-01-30T00:02:41;18.10;75.30
53978;DHT22;39886;47.984;-1.586;2024-01-30T00:05:08;18.10;75.30
53978;DHT22;39886;47.984;-1.586;2024-01-30T00:07:34;18.10;75.30
53978;DHT22;39886;47.984;-1.586;2024-01-30T00:09:59;18.10;75.30
53978;DHT22;39886;47.984;-1.586;2024-01-30T00:12:25;18.10;75.40
53978;DHT22;39886;47.984;-1.586;2024-01-30T00:14:51;18.10;75.30
53978;DHT22;39886;47.984;-1.586;2024-01-30T00:17:17;18.10;75.30
53978;DHT22;39886;47.984;-1.586;2024-01-30T00:19:42;18.10;75.30
53978;DHT22;39886;47.984;-1.586;2024-01-30T00:22:08;18.10;75.30
53978;DHT22;39886;47.984;-1.586;2024-01-30T00:24:34;18.10;75.30
53978;DHT22;39886;47.984;-1.586;2024-01-30T00:26:59;18.10;75.30
53978;DHT22;39886;47.984;-1.586;2024-01-30T00:29:25;18.10;75.30
53978;DHT22;39886;47.984;-1.586;2024-01-30T00:31:55;18.10;75.30
53978;DHT22;39886;47.984;-1.586;2024-01-30T00:34:21;18.10;76.00
53978;DHT22;39886;47.984;-1.586;2024-01-30T00:36:46;18.10;75.30
53978;DHT22;39886;47.984;-1.586;2024-01-30T00:39:12;18.00;75.20
53978;DHT22;39886;47.984;-1.586;2024-01-30T00:41:37;18.10;75.30
53978;DHT22;39886;47.984;-1.586;2024-01-30T00:44:03;18.10;75.30
53978;DHT22;39886;47.984;-1.586;2024-01-30T00:46:29;18.00;75.20
53978;DHT22;39886;47.984;-1.586;2024-01-30T00:48:54;18.10;75.30
53978;DHT22;39886;47.984;-1.586;2024-01-30T00:51:20;18.10;75.20
53978;DHT22;39886;47.984;-1.586;2024-01-30T00:53:45;18.00;75.20
53978;DHT22;39886;47.984;-1.586;2024-01-30T00:56:11;18.00;75.80
53978;DHT22;39886;47.984;-1.586;2024-01-30T00:58:36;18.00;75.20
53978;DHT22;39886;47.984;-1.586;2024-01-30T01:01:02;18.00;75.20
53978;DHT22;39886;47.984;-1.586;2024-01-30T01:03:28;18.00;75.20
53978;DHT22;39886;47.984;-1.586;2024-01-30T01:05:53;18.00;75.20
53978;DHT22;39886;47.984;-1.586;2024-01-30T01:08:19;18.00;75.10
53978;DHT22;39886;47.984;-1.586;2024-01-30T01:10:45;18.00;75.10
53978;DHT22;39886;47.984;-1.586;2024-01-30T01:13:11;18.00;75.10
53978;DHT22;39886;47.984;-1.586;2024-01-30T01:15:36;18.00;75.10
53978;DHT22;39886;47.984;-1.586;2024-01-30T01:18:02;18.00;75.10
53978;DHT22;39886;47.984;-1.586;2024-01-30T01:20:28;18.00;75.10
53978;DHT22;39886;47.984;-1.586;2024-01-30T01:22:53;18.00;75.10
53978;DHT22;39886;47.984;-1.586;2024-01-30T01:25:19;18.00;75.10
53978;DHT22;39886;47.984;-1.586;2024-01-30T01:27:45;18.00;75.10
53978;DHT22;39886;47.984;-1.586;2024-01-30T01:30:16;18.00;75.10
53978;DHT22;39886;47.984;-1.586;2024-01-30T01:32:47;18.00;75.10
53978;DHT22;39886;47.984;-1.586;2024-01-30T01:35:23;18.00;75.10
53978;DHT22;39886;47.984;-1.586;2024-01-30T01:37:53;18.00;75.10
53978;DHT22;39886;47.984;-1.586;2024-01-30T01:40:23;18.00;75.10
53978;DHT22;39886;47.984;-1.586;2024-01-30T01:42:49;18.00;75.10
53978;DHT22;39886;47.984;-1.586;2024-01-30T01:45:15;18.00;75.10
53978;DHT22;39886;47.984;-1.586;2024-01-30T01:47:41;18.00;75.10
53978;DHT22;39886;47.984;-1.586;2024-01-30T01:50:07;18.00;75.10
53978;DHT22;39886;47.984;-1.586;2024-01-30T01:52:33;18.00;75.10
53978;DHT22;39886;47.984;-1.586;2024-01-30T01:54:58;18.00;75.10
53978;DHT22;39886;47.984;-1.586;2024-01-30T01:57:24;18.00;75.10
53978;DHT22;39886;47.984;-1.586;2024-01-30T01:59:50;18.00;75.10
53978;DHT22;39886;47.984;-1.586;2024-01-30T02:02:16;18.00;75.10
53978;DHT22;39886;47.984;-1.586;2024-01-30T02:04:42;18.00;75.10
53978;DHT22;39886;47.984;-1.586;2024-01-30T02:07:08;18.00;75.10
53978;DHT22;39886;47.984;-1.586;2024-01-30T02:09:34;18.00;75.10
53978;DHT22;39886;47.984;-1.586;2024-01-30T02:12:00;18.00;75.00
53978;DHT22;39886;47.984;-1.586;2024-01-30T02:14:26;18.00;75.10
53978;DHT22;39886;47.984;-1.586;2024-01-30T02:16:51;18.00;75.10
53978;DHT22;39886;47.984;-1.586;2024-01-30T02:19:17;18.00;75.00
53978;DHT22;39886;47.984;-1.586;2024-01-30T02:21:44;18.00;75.00
53978;DHT22;39886;47.984;-1.586;2024-01-30T02:24:10;18.00;75.00
53978;DHT22;39886;47.984;-1.586;2024-01-30T02:26:36;18.00;75.00
53978;DHT22;39886;47.984;-1.586;2024-01-30T02:29:01;18.00;75.00
53978;DHT22;39886;47.984;-1.586;2024-01-30T02:31:27;18.00;75.00
53978;DHT22;39886;47.984;-1.586;2024-01-30T02:33:52;18.00;75.00
53978;DHT22;39886;47.984;-1.586;2024-01-30T02:36:18;18.00;75.00
53978;DHT22;39886;47.984;-1.586;2024-01-30T02:38:43;18.00;75.00
53978;DHT22;39886;47.984;-1.586;2024-01-30T02:41:09;18.00;75.60
53978;DHT22;39886;47.984;-1.586;2024-01-30T02:43:34;18.00;74.90
53978;DHT22;39886;47.984;-1.586;2024-01-30T02:46:00;18.00;75.00
53978;DHT22;39886;47.984;-1.586;2024-01-30T02:48:26;18.00;75.00
53978;DHT22;39886;47.984;-1.586;2024-01-30T02:50:52;17.90;74.90
53978;DHT22;39886;47.984;-1.586;2024-01-30T02:53:17;18.00;74.90
53978;DHT22;39886;47.984;-1.586;2024-01-30T02:55:43;18.00;75.00
53978;DHT22;39886;47.984;-1.586;2024-01-30T02:58:08;18.00;75.00
53978;DHT22;39886;47.984;-1.586;2024-01-30T03:00:34;18.00;74.90
53978;DHT22;39886;47.984;-1.586;2024-01-30T03:03:00;17.90;74.90
53978;DHT22;39886;47.984;-1.586;2024-01-30T03:05:25;17.90;74.90
53978;DHT22;39886;47.984;-1.586;2024-01-30T03:07:51;17.90;74.90
53978;DHT22;39886;47.984;-1.586;2024-01-30T03:10:16;18.00;75.60
53978;DHT22;39886;47.984;-1.586;2024-01-30T03:12:42;17.90;74.90
53978;DHT22;39886;47.984;-1.586;2024-01-30T03:15:08;17.90;74.80
53978;DHT22;39886;47.984;-1.586;2024-01-30T03:17:35;17.90;74.80
53978;DHT22;39886;47.984;-1.586;2024-01-30T03:20:02;17.90;74.80
53978;DHT22;39886;47.984;-1.586;2024-01-30T03:22:29;17.90;74.80
53978;DHT22;39886;47.984;-1.586;2024-01-30T03:24:54;17.90;74.80
53978;DHT22;39886;47.984;-1.586;2024-01-30T03:27:20;17.90;74.80
53978;DHT22;39886;47.984;-1.586;2024-01-30T03:29:45;17.90;74.80
53978;DHT22;39886;47.984;-1.586;2024-01-30T03:32:11;17.90;74.80
53978;DHT22;39886;47.984;-1.586;2024-01-30T03:34:36;17.90;74.80
53978;DHT22;39886;47.984;-1.586;2024-01-30T03:37:02;17.90;74.80
53978;DHT22;39886;47.984;-1.586;2024-01-30T03:39:28;17.90;74.80
53978;DHT22;39886;47.984;-1.586;2024-01-30T03:41:53;17.90;74.80
53978;DHT22;39886;47.984;-1.586;2024-01-30T03:44:19;17.90;74.80
53978;DHT22;39886;47.984;-1.586;2024-01-30T03:46:44;17.90;74.80
53978;DHT22;39886;47.984;-1.586;2024-01-30T03:49:11;17.90;74.80
53978;DHT22;39886;47.984;-1.586;2024-01-30T03:51:36;17.90;74.80
53978;DHT22;39886;47.984;-1.586;2024-01-30T03:54:02;17.90;74.80
53978;DHT22;39886;47.984;-1.586;2024-01-30T03:56:27;17.90;74.80
53978;DHT22;39886;47.984;-1.586;2024-01-30T03:58:53;17.90;74.80
53978;DHT22;39886;47.984;-1.586;2024-01-30T04:01:19;17.90;74.80
53978;DHT22;39886;47.984;-1.586;2024-01-30T04:03:44;17.90;74.80
53978;DHT22;39886;47.984;-1.586;2024-01-30T04:06:10;17.90;74.80
53978;DHT22;39886;47.984;-1.586;2024-01-30T04:08:36;17.90;74.70
53978;DHT22;39886;47.984;-1.586;2024-01-30T04:11:05;17.90;74.70
53978;DHT22;39886;47.984;-1.586;2024-01-30T04:13:31;17.80;74.60
53978;DHT22;39886;47.984;-1.586;2024-01-30T04:15:58;17.90;74.70
53978;DHT22;39886;47.984;-1.586;2024-01-30T04:18:24;17.90;74.70
53978;DHT22;39886;47.984;-1.586;2024-01-30T04:20:49;17.80;74.60
53978;DHT22;39886;47.984;-1.586;2024-01-30T04:23:15;17.80;74.60
53978;DHT22;39886;47.984;-1.586;2024-01-30T04:25:40;17.80;74.60
53978;DHT22;39886;47.984;-1.586;2024-01-30T04:28:06;17.80;74.60
53978;DHT22;39886;47.984;-1.586;2024-01-30T04:30:32;17.80;74.60
53978;DHT22;39886;47.984;-1.586;2024-01-30T04:32:57;17.80;74.60
53978;DHT22;39886;47.984;-1.586;2024-01-30T04:35:23;17.80;74.60
53978;DHT22;39886;47.984;-1.586;2024-01-30T04:37:51;17.80;74.60
53978;DHT22;39886;47.984;-1.586;2024-01-30T04:40:17;17.80;74.60
53978;DHT22;39886;47.984;-1.586;2024-01-30T04:42:42;17.80;74.60
53978;DHT22;39886;47.984;-1.586;2024-01-30T04:45:08;17.80;74.60
53978;DHT22;39886;47.984;-1.586;2024-01-30T04:47:34;17.80;74.60
53978;DHT22;39886;47.984;-1.586;2024-01-30T04:49:59;17.80;74.60
53978;DHT22;39886;47.984;-1.586;2024-01-30T04:52:25;17.80;74.50
53978;DHT22;39886;47.984;-1.586;2024-01-30T04:54:51;17.80;74.60
53978;DHT22;39886;47.984;-1.586;2024-01-30T04:57:16;17.80;74.60
53978;DHT22;39886;47.984;-1.586;2024-01-30T04:59:42;17.80;75.20
53978;DHT22;39886;47.984;-1.586;2024-01-30T05:02:07;17.80;74.50
53978;DHT22;39886;47.984;-1.586;2024-01-30T05:04:33;17.80;74.50
53978;DHT22;39886;47.984;-1.586;2024-01-30T05:06:58;17.80;74.50
53978;DHT22;39886;47.984;-1.586;2024-01-30T05:09:24;17.80;74.50
53978;DHT22;39886;47.984;-1.586;2024-01-30T05:11:49;17.80;74.50
53978;DHT22;39886;47.984;-1.586;2024-01-30T05:14:15;17.80;74.50
53978;DHT22;39886;47.984;-1.586;2024-01-30T05:16:41;17.80;74.50
53978;DHT22;39886;47.984;-1.586;2024-01-30T05:19:12;17.80;74.50
53978;DHT22;39886;47.984;-1.586;2024-01-30T05:21:38;17.80;74.50
53978;DHT22;39886;47.984;-1.586;2024-01-30T05:24:03;17.80;74.50
53978;DHT22;39886;47.984;-1.586;2024-01-30T05:26:29;17.80;74.50
53978;DHT22;39886;47.984;-1.586;2024-01-30T05:28:55;17.80;74.50
53978;DHT22;39886;47.984;-1.586;2024-01-30T05:31:21;17.80;74.40
53978;DHT22;39886;47.984;-1.586;2024-01-30T05:33:46;18.00;74.10
53978;DHT22;39886;47.984;-1.586;2024-01-30T05:36:12;18.10;73.60
53978;DHT22;39886;47.984;-1.586;2024-01-30T05:38:38;18.30;73.20
53978;DHT22;39886;47.984;-1.586;2024-01-30T05:41:04;18.40;72.80
53978;DHT22;39886;47.984;-1.586;2024-01-30T05:43:29;18.50;72.40
53978;DHT22;39886;47.984;-1.586;2024-01-30T05:45:55;18.60;72.10
53978;DHT22;39886;47.984;-1.586;2024-01-30T05:48:21;18.80;71.90
53978;DHT22;39886;47.984;-1.586;2024-01-30T05:50:46;18.90;71.70
53978;DHT22;39886;47.984;-1.586;2024-01-30T05:53:12;18.90;71.40
53978;DHT22;39886;47.984;-1.586;2024-01-30T05:55:37;19.00;71.20
53978;DHT22;39886;47.984;-1.586;2024-01-30T05:58:03;19.10;71.00
53978;DHT22;39886;47.984;-1.586;2024-01-30T06:00:29;19.20;70.80
53978;DHT22;39886;47.984;-1.586;2024-01-30T06:02:54;19.20;70.50
53978;DHT22;39886;47.984;-1.586;2024-01-30T06:05:20;19.30;70.30
53978;DHT22;39886;47.984;-1.586;2024-01-30T06:07:46;19.30;70.10
53978;DHT22;39886;47.984;-1.586;2024-01-30T06:10:11;19.40;70.00
53978;DHT22;39886;47.984;-1.586;2024-01-30T06:12:37;19.40;69.80
53978;DHT22;39886;47.984;-1.586;2024-01-30T06:15:03;19.50;69.70
53978;DHT22;39886;47.984;-1.586;2024-01-30T06:17:29;19.50;69.50
53978;DHT22;39886;47.984;-1.586;2024-01-30T06:19:54;19.60;69.50
53978;DHT22;39886;47.984;-1.586;2024-01-30T06:22:20;19.60;69.20
53978;DHT22;39886;47.984;-1.586;2024-01-30T06:24:45;19.60;69.10
53978;DHT22;39886;47.984;-1.586;2024-01-30T06:27:13;19.60;69.00
53978;DHT22;39886;47.984;-1.586;2024-01-30T06:29:39;19.70;68.90
53978;DHT22;39886;47.984;-1.586;2024-01-30T06:32:05;19.70;68.80
53978;DHT22;39886;47.984;-1.586;2024-01-30T06:34:31;19.80;68.60
53978;DHT22;39886;47.984;-1.586;2024-01-30T06:36:56;19.80;68.50
53978;DHT22;39886;47.984;-1.586;2024-01-30T06:39:22;19.80;68.40
53978;DHT22;39886;47.984;-1.586;2024-01-30T06:41:48;19.80;68.40
53978;DHT22;39886;47.984;-1.586;2024-01-30T06:44:14;19.90;68.40
53978;DHT22;39886;47.984;-1.586;2024-01-30T06:46:40;19.90;68.20
53978;DHT22;39886;47.984;-1.586;2024-01-30T06:49:05;19.90;68.90
53978;DHT22;39886;47.984;-1.586;2024-01-30T06:51:31;19.90;68.10
53978;DHT22;39886;47.984;-1.586;2024-01-30T06:53:56;20.00;68.10
53978;DHT22;39886;47.984;-1.586;2024-01-30T06:56:22;20.00;67.90
53978;DHT22;39886;47.984;-1.586;2024-01-30T06:58:48;20.00;67.80
53978;DHT22;39886;47.984;-1.586;2024-01-30T07:01:14;20.00;67.90
53978;DHT22;39886;47.984;-1.586;2024-01-30T07:03:39;20.00;67.80
53978;DHT22;39886;47.984;-1.586;2024-01-30T07:06:05;20.10;67.80
53978;DHT22;39886;47.984;-1.586;2024-01-30T07:08:31;20.10;68.00
53978;DHT22;39886;47.984;-1.586;2024-01-30T07:10:56;20.10;67.90
53978;DHT22;39886;47.984;-1.586;2024-01-30T07:13:22;20.10;67.90
53978;DHT22;39886;47.984;-1.586;2024-01-30T07:15:47;20.20;67.70
53978;DHT22;39886;47.984;-1.586;2024-01-30T07:18:13;20.20;67.80
53978;DHT22;39886;47.984;-1.586;2024-01-30T07:20:39;20.20;67.50
53978;DHT22;39886;47.984;-1.586;2024-01-30T07:23:15;20.30;67.10
53978;DHT22;39886;47.984;-1.586;2024-01-30T07:25:42;20.30;67.20
53978;DHT22;39886;47.984;-1.586;2024-01-30T07:28:08;20.40;67.00
53978;DHT22;39886;47.984;-1.586;2024-01-30T07:30:43;20.40;66.40
53978;DHT22;39886;47.984;-1.586;2024-01-30T07:33:09;20.50;67.10
53978;DHT22;39886;47.984;-1.586;2024-01-30T07:35:34;20.40;67.30
53978;DHT22;39886;47.984;-1.586;2024-01-30T07:38:00;20.40;67.30
53978;DHT22;39886;47.984;-1.586;2024-01-30T07:40:26;20.40;66.90
53978;DHT22;39886;47.984;-1.586;2024-01-30T07:42:52;20.60;67.00
53978;DHT22;39886;47.984;-1.586;2024-01-30T07:45:18;20.50;67.20
53978;DHT22;39886;47.984;-1.586;2024-01-30T07:47:51;20.50;67.20
53978;DHT22;39886;47.984;-1.586;2024-01-30T07:50:16;20.60;67.10
53978;DHT22;39886;47.984;-1.586;2024-01-30T07:52:45;20.60;67.10
53978;DHT22;39886;47.984;-1.586;2024-01-30T07:55:11;20.60;67.20
53978;DHT22;39886;47.984;-1.586;2024-01-30T07:57:40;20.60;67.30
53978;DHT22;39886;47.984;-1.586;2024-01-30T08:00:06;20.60;67.20
53978;DHT22;39886;47.984;-1.586;2024-01-30T08:02:32;20.70;67.30
53978;DHT22;39886;47.984;-1.586;2024-01-30T08:04:58;20.70;66.80
53978;DHT22;39886;47.984;-1.586;2024-01-30T08:07:23;20.80;67.20
53978;DHT22;39886;47.984;-1.586;2024-01-30T08:09:50;20.80;68.90
53978;DHT22;39886;47.984;-1.586;2024-01-30T08:12:15;20.90;67.20
53978;DHT22;39886;47.984;-1.586;2024-01-30T08:14:41;20.90;67.50
53978;DHT22;39886;47.984;-1.586;2024-01-30T08:17:06;21.00;67.20
53978;DHT22;39886;47.984;-1.586;2024-01-30T08:19:33;21.00;67.00
53978;DHT22;39886;47.984;-1.586;2024-01-30T08:21:58;21.10;67.20
53978;DHT22;39886;47.984;-1.586;2024-01-30T08:24:24;21.10;66.80
53978;DHT22;39886;47.984;-1.586;2024-01-30T08:26:49;21.20;66.20
53978;DHT22;39886;47.984;-1.586;2024-01-30T08:29:15;21.30;66.80
53978;DHT22;39886;47.984;-1.586;2024-01-30T08:31:41;21.20;66.90
53978;DHT22;39886;47.984;-1.586;2024-01-30T08:34:06;21.30;66.40
53978;DHT22;39886;47.984;-1.586;2024-01-30T08:36:32;21.40;66.00
53978;DHT22;39886;47.984;-1.586;2024-01-30T08:38:57;21.40;66.20
53978;DHT22;39886;47.984;-1.586;2024-01-30T08:41:24;21.50;66.70
53978;DHT22;39886;47.984;-1.586;2024-01-30T08:43:49;21.50;66.90
53978;DHT22;39886;47.984;-1.586;2024-01-30T08:46:18;21.60;66.10
53978;DHT22;39886;47.984;-1.586;2024-01-30T08:48:44;21.70;66.10
53978;DHT22;39886;47.984;-1.586;2024-01-30T08:51:10;21.70;66.30
53978;DHT22;39886;47.984;-1.586;2024-01-30T08:53:36;21.70;66.30
53978;DHT22;39886;47.984;-1.586;2024-01-30T08:56:02;21.70;65.60
53978;DHT22;39886;47.984;-1.586;2024-01-30T08:58:28;21.80;66.20
53978;DHT22;39886;47.984;-1.586;2024-01-30T09:00:53;21.80;65.70
53978;DHT22;39886;47.984;-1.586;2024-01-30T09:03:19;21.90;65.80
53978;DHT22;39886;47.984;-1.586;2024-01-30T09:05:45;21.90;65.60
53978;DHT22;39886;47.984;-1.586;2024-01-30T09:08:10;21.90;66.00
53978;DHT22;39886;47.984;-1.586;2024-01-30T09:10:36;21.90;66.10
53978;DHT22;39886;47.984;-1.586;2024-01-30T09:13:01;21.90;66.20
53978;DHT22;39886;47.984;-1.586;2024-01-30T09:15:27;21.90;66.30
53978;DHT22;39886;47.984;-1.586;2024-01-30T09:17:53;21.90;65.90
53978;DHT22;39886;47.984;-1.586;2024-01-30T09:20:18;21.90;66.30
53978;DHT22;39886;47.984;-1.586;2024-01-30T09:22:45;21.90;66.40
53978;DHT22;39886;47.984;-1.586;2024-01-30T09:25:11;21.90;66.10
53978;DHT22;39886;47.984;-1.586;2024-01-30T09:27:36;21.80;66.50
53978;DHT22;39886;47.984;-1.586;2024-01-30T09:30:02;21.70;66.90
53978;DHT22;39886;47.984;-1.586;2024-01-30T09:32:28;21.50;67.00
53978;DHT22;39886;47.984;-1.586;2024-01-30T09:34:54;21.40;67.40
53978;DHT22;39886;47.984;-1.586;2024-01-30T09:37:19;21.30;67.70
53978;DHT22;39886;47.984;-1.586;2024-01-30T09:39:45;21.20;67.70
53978;DHT22;39886;47.984;-1.586;2024-01-30T09:42:17;21.20;68.00
53978;DHT22;39886;47.984;-1.586;2024-01-30T09:44:46;21.10;68.10
53978;DHT22;39886;47.984;-1.586;2024-01-30T09:47:12;21.00;68.30
53978;DHT22;39886;47.984;-1.586;2024-01-30T09:49:38;21.00;68.40
53978;DHT22;39886;47.984;-1.586;2024-01-30T09:52:05;20.90;68.60
53978;DHT22;39886;47.984;-1.586;2024-01-30T09:54:31;20.90;68.70
53978;DHT22;39886;47.984;-1.586;2024-01-30T09:56:57;20.90;68.70
53978;DHT22;39886;47.984;-1.586;2024-01-30T09:59:23;20.80;68.90
53978;DHT22;39886;47.984;-1.586;2024-01-30T10:01:49;20.70;69.10
53978;DHT22;39886;47.984;-1.586;2024-01-30T10:04:15;20.70;69.30
53978;DHT22;39886;47.984;-1.586;2024-01-30T10:06:41;20.70;69.20
53978;DHT22;39886;47.984;-1.586;2024-01-30T10:09:07;20.60;69.50
53978;DHT22;39886;47.984;-1.586;2024-01-30T10:11:33;20.60;69.40
53978;DHT22;39886;47.984;-1.586;2024-01-30T10:13:59;20.60;69.50
53978;DHT22;39886;47.984;-1.586;2024-01-30T10:16:25;20.50;69.70
53978;DHT22;39886;47.984;-1.586;2024-01-30T10:18:51;20.50;69.80
53978;DHT22;39886;47.984;-1.586;2024-01-30T10:21:16;20.50;69.90
53978;DHT22;39886;47.984;-1.586;2024-01-30T10:23:43;20.50;70.20
53978;DHT22;39886;47.984;-1.586;2024-01-30T10:26:08;20.50;70.30
53978;DHT22;39886;47.984;-1.586;2024-01-30T10:28:34;20.60;70.20
53978;DHT22;39886;47.984;-1.586;2024-01-30T10:30:59;20.70;69.70
53978;DHT22;39886;47.984;-1.586;2024-01-30T10:33:26;20.90;69.50
53978;DHT22;39886;47.984;-1.586;2024-01-30T10:35:54;21.10;69.10
53978;DHT22;39886;47.984;-1.586;2024-01-30T10:38:20;21.20;69.10
53978;DHT22;39886;47.984;-1.586;2024-01-30T10:40:46;21.30;68.80
53978;DHT22;39886;47.984;-1.586;2024-01-30T10:43:13;21.50;67.80
53978;DHT22;39886;47.984;-1.586;2024-01-30T10:45:40;21.60;67.60
53978;DHT22;39886;47.984;-1.586;2024-01-30T10:48:09;21.70;67.70
53978;DHT22;39886;47.984;-1.586;2024-01-30T10:50:35;21.80;67.20
53978;DHT22;39886;47.984;-1.586;2024-01-30T10:53:01;21.90;67.00
53978;DHT22;39886;47.984;-1.586;2024-01-30T10:55:27;22.00;66.80
53978;DHT22;39886;47.984;-1.586;2024-01-30T10:57:53;22.00;67.10
53978;DHT22;39886;47.984;-1.586;2024-01-30T11:00:19;21.90;64.20
53978;DHT22;39886;47.984;-1.586;2024-01-30T11:02:48;21.80;66.80
53978;DHT22;39886;47.984;-1.586;2024-01-30T11:05:14;21.70;67.40
53978;DHT22;39886;47.984;-1.586;2024-01-30T11:07:41;21.60;67.70
53978;DHT22;39886;47.984;-1.586;2024-01-30T11:10:07;21.60;68.50
53978;DHT22;39886;47.984;-1.586;2024-01-30T11:12:40;21.60;69.70
53978;DHT22;39886;47.984;-1.586;2024-01-30T11:15:09;21.50;69.40
53978;DHT22;39886;47.984;-1.586;2024-01-30T11:17:44;21.50;69.70
53978;DHT22;39886;47.984;-1.586;2024-01-30T11:20:10;21.40;70.00
53978;DHT22;39886;47.984;-1.586;2024-01-30T11:22:37;21.40;70.20
53978;DHT22;39886;47.984;-1.586;2024-01-30T11:25:02;21.40;70.50
53978;DHT22;39886;47.984;-1.586;2024-01-30T11:27:29;21.30;70.80
53978;DHT22;39886;47.984;-1.586;2024-01-30T11:30:02;21.30;70.80
53978;DHT22;39886;47.984;-1.586;2024-01-30T11:32:28;21.30;70.80
53978;DHT22;39886;47.984;-1.586;2024-01-30T11:34:54;21.30;71.20
53978;DHT22;39886;47.984;-1.586;2024-01-30T11:39:46;21.20;68.30
53978;DHT22;39886;47.984;-1.586;2024-01-30T11:47:50;21.00;69.40
53978;DHT22;39886;47.984;-1.586;2024-01-30T11:50:16;21.00;69.30
53978;DHT22;39886;47.984;-1.586;2024-01-30T11:52:41;20.90;69.30
53978;DHT22;39886;47.984;-1.586;2024-01-30T11:55:08;20.90;69.30
53978;DHT22;39886;47.984;-1.586;2024-01-30T11:57:34;20.80;69.40
53978;DHT22;39886;47.984;-1.586;2024-01-30T12:00:03;20.80;69.40
53978;DHT22;39886;47.984;-1.586;2024-01-30T12:02:38;20.80;69.50
53978;DHT22;39886;47.984;-1.586;2024-01-30T12:05:04;20.80;69.70
53978;DHT22;39886;47.984;-1.586;2024-01-30T12:07:30;20.70;69.60
53978;DHT22;39886;47.984;-1.586;2024-01-30T12:09:56;20.70;69.60
53978;DHT22;39886;47.984;-1.586;2024-01-30T12:12:23;20.70;69.50
53978;DHT22;39886;47.984;-1.586;2024-01-30T12:14:49;20.80;69.50
53978;DHT22;39886;47.984;-1.586;2024-01-30T12:17:31;20.80;69.40
53978;DHT22;39886;47.984;-1.586;2024-01-30T12:20:03;20.80;69.40
53978;DHT22;39886;47.984;-1.586;2024-01-30T12:22:29;20.80;69.40
53978;DHT22;39886;47.984;-1.586;2024-01-30T12:24:55;20.70;69.40
53978;DHT22;39886;47.984;-1.586;2024-01-30T12:27:20;20.70;69.40
53978;DHT22;39886;47.984;-1.586;2024-01-30T12:29:46;20.70;69.40
53978;DHT22;39886;47.984;-1.586;2024-01-30T12:32:15;20.60;69.40
53978;DHT22;39886;47.984;-1.586;2024-01-30T12:34:41;20.60;69.40
53978;DHT22;39886;47.984;-1.586;2024-01-30T12:37:07;20.60;69.50
53978;DHT22;39886;47.984;-1.586;2024-01-30T12:39:34;20.60;69.70
53978;DHT22;39886;47.984;-1.586;2024-01-30T12:42:00;20.70;69.50
53978;DHT22;39886;47.984;-1.586;2024-01-30T12:44:25;20.70;69.40
53978;DHT22;39886;47.984;-1.586;2024-01-30T12:46:51;20.80;69.00
53978;DHT22;39886;47.984;-1.586;2024-01-30T12:49:17;20.80;68.90
53978;DHT22;39886;47.984;-1.586;2024-01-30T12:51:42;20.80;69.10
53978;DHT22;39886;47.984;-1.586;2024-01-30T12:54:08;20.80;69.30
53978;DHT22;39886;47.984;-1.586;2024-01-30T12:56:33;20.80;69.20
53978;DHT22;39886;47.984;-1.586;2024-01-30T12:58:59;20.90;69.20
53978;DHT22;39886;47.984;-1.586;2024-01-30T13:01:25;20.90;69.10
53978;DHT22;39886;47.984;-1.586;2024-01-30T13:03:50;20.90;69.10
53978;DHT22;39886;47.984;-1.586;2024-01-30T13:06:16;20.90;69.10
53978;DHT22;39886;47.984;-1.586;2024-01-30T13:08:41;20.90;69.20
53978;DHT22;39886;47.984;-1.586;2024-01-30T13:11:07;20.90;69.30
53978;DHT22;39886;47.984;-1.586;2024-01-30T13:13:32;20.90;69.30
53978;DHT22;39886;47.984;-1.586;2024-01-30T13:15:58;20.90;69.10
53978;DHT22;39886;47.984;-1.586;2024-01-30T13:18:23;20.90;69.10
53978;DHT22;39886;47.984;-1.586;2024-01-30T13:20:49;20.90;69.10
53978;DHT22;39886;47.984;-1.586;2024-01-30T13:23:15;21.00;68.90
53978;DHT22;39886;47.984;-1.586;2024-01-30T13:25:40;21.00;69.10
53978;DHT22;39886;47.984;-1.586;2024-01-30T13:28:06;21.00;69.10
53978;DHT22;39886;47.984;-1.586;2024-01-30T13:30:32;21.00;69.00
53978;DHT22;39886;47.984;-1.586;2024-01-30T13:32:57;20.90;69.20
53978;DHT22;39886;47.984;-1.586;2024-01-30T13:35:23;20.90;69.30
53978;DHT22;39886;47.984;-1.586;2024-01-30T13:37:48;20.90;69.30
53978;DHT22;39886;47.984;-1.586;2024-01-30T13:40:14;20.90;69.60
53978;DHT22;39886;47.984;-1.586;2024-01-30T13:42:41;20.90;69.50
53978;DHT22;39886;47.984;-1.586;2024-01-30T13:45:06;20.90;69.20
53978;DHT22;39886;47.984;-1.586;2024-01-30T13:47:35;20.90;69.30
53978;DHT22;39886;47.984;-1.586;2024-01-30T13:50:00;20.90;69.30
53978;DHT22;39886;47.984;-1.586;2024-01-30T13:52:26;20.90;69.40
53978;DHT22;39886;47.984;-1.586;2024-01-30T13:54:52;20.90;69.40
53978;DHT22;39886;47.984;-1.586;2024-01-30T13:57:18;20.90;69.50
53978;DHT22;39886;47.984;-1.586;2024-01-30T13:59:43;20.90;69.70
53978;DHT22;39886;47.984;-1.586;2024-01-30T14:02:09;20.90;69.50
53978;DHT22;39886;47.984;-1.586;2024-01-30T14:04:35;20.90;69.80
53978;DHT22;39886;47.984;-1.586;2024-01-30T14:07:03;20.90;69.70
53978;DHT22;39886;47.984;-1.586;2024-01-30T14:09:28;20.90;69.80
53978;DHT22;39886;47.984;-1.586;2024-01-30T14:11:55;21.00;69.80
53978;DHT22;39886;47.984;-1.586;2024-01-30T14:14:20;21.00;69.70
53978;DHT22;39886;47.984;-1.586;2024-01-30T14:16:46;21.00;69.70
53978;DHT22;39886;47.984;-1.586;2024-01-30T14:19:11;21.00;69.90
53978;DHT22;39886;47.984;-1.586;2024-01-30T14:21:37;21.00;70.00
53978;DHT22;39886;47.984;-1.586;2024-01-30T14:24:02;21.00;70.20
53978;DHT22;39886;47.984;-1.586;2024-01-30T14:26:28;20.90;69.80
53978;DHT22;39886;47.984;-1.586;2024-01-30T14:28:53;21.00;70.00
53978;DHT22;39886;47.984;-1.586;2024-01-30T14:31:20;21.00;70.00
53978;DHT22;39886;47.984;-1.586;2024-01-30T14:33:47;21.00;69.90
53978;DHT22;39886;47.984;-1.586;2024-01-30T14:36:12;21.00;70.20
53978;DHT22;39886;47.984;-1.586;2024-01-30T14:38:39;21.00;70.30
53978;DHT22;39886;47.984;-1.586;2024-01-30T14:41:04;21.00;70.10
53978;DHT22;39886;47.984;-1.586;2024-01-30T14:43:31;21.00;70.50
53978;DHT22;39886;47.984;-1.586;2024-01-30T14:45:56;21.00;70.40
53978;DHT22;39886;47.984;-1.586;2024-01-30T14:48:23;21.00;70.40
53978;DHT22;39886;47.984;-1.586;2024-01-30T14:50:48;20.90;70.10
53978;DHT22;39886;47.984;-1.586;2024-01-30T14:53:14;20.90;70.30
53978;DHT22;39886;47.984;-1.586;2024-01-30T14:55:40;20.90;70.60
53978;DHT22;39886;47.984;-1.586;2024-01-30T14:58:05;21.00;70.40
53978;DHT22;39886;47.984;-1.586;2024-01-30T15:00:31;21.00;70.60
53978;DHT22;39886;47.984;-1.586;2024-01-30T15:02:56;21.00;70.70
53978;DHT22;39886;47.984;-1.586;2024-01-30T15:05:22;21.00;70.50
53978;DHT22;39886;47.984;-1.586;2024-01-30T15:07:48;20.90;70.60
53978;DHT22;39886;47.984;-1.586;2024-01-30T15:10:13;20.90;70.70
53978;DHT22;39886;47.984;-1.586;2024-01-30T15:12:39;20.90;70.70
53978;DHT22;39886;47.984;-1.586;2024-01-30T15:15:06;20.90;70.70